createdAt,value
2022-10-23T00:01:06.742Z,14.70
2022-10-23T00:03:33.153Z,14.70
2022-10-23T00:05:59.614Z,14.70
2022-10-23T00:08:26.055Z,14.70
2022-10-23T00:10:52.489Z,14.70
2022-10-23T00:13:18.908Z,14.70
2022-10-23T00:15:46.611Z,14.70
2022-10-23T00:18:13.097Z,14.60
2022-10-23T00:20:39.534Z,14.70
2022-10-23T00:23:05.972Z,14.70
2022-10-23T00:25:32.409Z,14.70
2022-10-23T00:27:58.853Z,14.60
2022-10-23T00:30:25.285Z,14.60
2022-10-23T00:32:51.698Z,14.60
2022-10-23T00:35:18.125Z,14.70
2022-10-23T00:37:44.793Z,14.70
2022-10-23T00:40:11.364Z,14.60
2022-10-23T00:42:37.795Z,14.60
2022-10-23T00:45:04.213Z,14.60
2022-10-23T00:47:30.657Z,14.50
2022-10-23T00:49:57.073Z,14.60
2022-10-23T00:52:23.559Z,14.50
2022-10-23T00:54:49.983Z,14.50
2022-10-23T00:57:16.423Z,14.50
2022-10-23T00:59:42.864Z,14.50
2022-10-23T01:02:09.415Z,14.50
2022-10-23T01:04:36.361Z,14.50
2022-10-23T01:07:02.810Z,14.50
2022-10-23T01:09:29.253Z,14.50
2022-10-23T01:11:55.692Z,14.50
2022-10-23T01:14:22.113Z,14.50
2022-10-23T01:16:48.585Z,14.50
2022-10-23T01:19:15.029Z,14.50
2022-10-23T01:21:41.444Z,14.50
2022-10-23T01:24:07.891Z,14.50
2022-10-23T01:26:34.322Z,14.40
2022-10-23T01:29:00.757Z,14.40
2022-10-23T01:31:27.202Z,14.40
2022-10-23T01:33:53.632Z,14.40
2022-10-23T01:36:20.066Z,14.40
2022-10-23T01:38:46.501Z,14.40
2022-10-23T01:41:12.944Z,14.40
2022-10-23T01:43:39.378Z,14.40
2022-10-23T01:46:05.796Z,14.40
2022-10-23T01:48:32.254Z,14.40
2022-10-23T01:50:58.672Z,14.40
2022-10-23T01:53:25.098Z,14.40
2022-10-23T01:55:51.512Z,14.40
2022-10-23T01:58:17.968Z,14.30
2022-10-23T02:00:44.409Z,14.40
2022-10-23T02:03:10.824Z,14.30
2022-10-23T02:05:37.262Z,14.30
2022-10-23T02:08:03.697Z,14.40
2022-10-23T02:10:30.141Z,14.40
2022-10-23T02:12:56.572Z,14.30
2022-10-23T02:15:23.015Z,14.40
2022-10-23T02:17:49.465Z,14.30
2022-10-23T02:20:15.918Z,14.30
2022-10-23T02:22:42.543Z,14.30
2022-10-23T02:25:09.154Z,14.40
2022-10-23T02:27:35.580Z,14.40
2022-10-23T02:30:02.023Z,14.30
2022-10-23T02:32:28.448Z,14.30
2022-10-23T02:34:54.903Z,14.30
2022-10-23T02:39:52.678Z,14.30
2022-10-23T02:42:19.119Z,14.30
2022-10-23T02:44:45.554Z,14.30
2022-10-23T02:47:11.979Z,14.30
2022-10-23T02:49:38.432Z,14.20
2022-10-23T02:52:04.852Z,14.20
2022-10-23T02:54:31.295Z,14.20
2022-10-23T02:56:57.729Z,14.20
2022-10-23T02:59:24.150Z,14.20
2022-10-23T03:01:50.734Z,14.20
2022-10-23T03:04:17.227Z,14.20
2022-10-23T03:06:43.674Z,14.20
2022-10-23T03:09:10.090Z,14.10
2022-10-23T03:11:36.522Z,14.10
2022-10-23T03:14:02.946Z,14.10
2022-10-23T03:16:29.380Z,14.10
2022-10-23T03:18:55.815Z,14.10
2022-10-23T03:21:22.244Z,14.00
2022-10-23T03:23:48.688Z,14.00
2022-10-23T03:26:15.117Z,14.00
2022-10-23T03:28:41.546Z,14.00
2022-10-23T03:31:07.983Z,14.10
2022-10-23T03:33:34.398Z,14.00
2022-10-23T03:36:00.826Z,14.00
2022-10-23T03:38:27.277Z,14.00
2022-10-23T03:40:53.705Z,14.00
2022-10-23T03:43:20.144Z,14.00
2022-10-23T03:45:46.565Z,14.00
2022-10-23T03:48:12.997Z,14.00
2022-10-23T03:50:39.408Z,14.00
2022-10-23T03:53:05.857Z,14.00
2022-10-23T03:55:32.283Z,14.00
2022-10-23T03:57:58.707Z,14.00
2022-10-23T04:00:25.124Z,14.00
2022-10-23T04:02:51.555Z,14.00
2022-10-23T04:05:17.968Z,14.00
2022-10-23T04:07:44.413Z,14.00
2022-10-23T04:10:10.837Z,14.00
2022-10-23T04:12:37.287Z,14.00
2022-10-23T04:15:03.717Z,14.00
2022-10-23T04:17:30.163Z,14.00
2022-10-23T04:19:56.582Z,14.10
2022-10-23T04:22:25.950Z,14.10
2022-10-23T04:24:54.026Z,14.00
2022-10-23T04:27:20.459Z,14.00
2022-10-23T04:29:46.909Z,14.00
2022-10-23T04:32:13.345Z,14.00
2022-10-23T04:34:39.806Z,14.00
2022-10-23T04:37:06.244Z,14.00
2022-10-23T04:39:32.682Z,14.00
2022-10-23T04:41:59.098Z,14.00
2022-10-23T04:44:25.535Z,14.00
2022-10-23T04:46:51.984Z,14.00
2022-10-23T04:49:18.436Z,14.10
2022-10-23T04:51:44.881Z,14.10
2022-10-23T04:54:11.328Z,14.10
2022-10-23T04:56:37.751Z,14.00
2022-10-23T05:01:35.629Z,14.00
2022-10-23T05:04:02.107Z,14.00
2022-10-23T05:06:28.534Z,14.00
2022-10-23T05:08:54.978Z,14.00
2022-10-23T05:11:21.397Z,14.00
2022-10-23T05:13:47.836Z,14.00
2022-10-23T05:16:14.268Z,14.10
2022-10-23T05:18:40.720Z,14.00
2022-10-23T05:21:07.153Z,14.00
2022-10-23T05:23:33.581Z,14.00
2022-10-23T05:26:00.022Z,14.00
2022-10-23T05:28:26.459Z,14.00
2022-10-23T05:30:52.884Z,14.00
2022-10-23T05:33:19.303Z,14.00
2022-10-23T05:35:45.754Z,13.90
2022-10-23T05:38:12.183Z,13.90
2022-10-23T05:43:05.976Z,13.90
2022-10-23T05:45:32.420Z,13.90
2022-10-23T05:48:10.662Z,13.90
2022-10-23T05:50:45.278Z,13.90
2022-10-23T05:53:11.700Z,13.90
2022-10-23T05:55:38.135Z,13.90
2022-10-23T05:58:04.577Z,13.90
2022-10-23T06:00:31.033Z,13.90
2022-10-23T06:02:57.456Z,13.90
2022-10-23T06:05:23.906Z,14.00
2022-10-23T06:07:50.334Z,14.00
2022-10-23T06:10:16.742Z,14.00
2022-10-23T06:12:43.192Z,14.00
2022-10-23T06:15:10.357Z,14.00
2022-10-23T06:17:37.775Z,14.00
2022-10-23T06:20:04.205Z,14.00
2022-10-23T06:22:30.638Z,14.00
2022-10-23T06:24:57.055Z,14.00
2022-10-23T06:27:23.498Z,14.10
2022-10-23T06:29:49.933Z,14.10
2022-10-23T06:32:16.385Z,14.10
2022-10-23T06:34:42.836Z,14.10
2022-10-23T06:37:09.297Z,14.00
2022-10-23T06:39:35.717Z,14.00
2022-10-23T06:42:02.161Z,14.10
2022-10-23T06:44:28.669Z,14.00
2022-10-23T06:46:55.102Z,14.10
2022-10-23T06:49:21.519Z,14.10
2022-10-23T06:51:47.941Z,14.00
2022-10-23T06:54:14.381Z,14.00
2022-10-23T06:56:40.812Z,14.00
2022-10-23T06:59:07.240Z,14.00
2022-10-23T07:01:33.842Z,14.00
2022-10-23T07:04:00.385Z,14.00
2022-10-23T07:06:26.801Z,14.10
2022-10-23T07:08:53.236Z,14.10
2022-10-23T07:11:19.644Z,14.10
2022-10-23T07:13:46.076Z,14.10
2022-10-23T07:16:12.488Z,14.10
2022-10-23T07:18:38.933Z,14.20
2022-10-23T07:21:05.352Z,14.20
2022-10-23T07:23:31.790Z,14.20
2022-10-23T07:25:58.214Z,14.20
2022-10-23T07:28:24.658Z,14.30
2022-10-23T07:30:51.078Z,14.30
2022-10-23T07:33:17.528Z,14.30
2022-10-23T07:35:43.944Z,14.40
2022-10-23T07:38:10.371Z,14.40
2022-10-23T07:40:36.801Z,14.40
2022-10-23T07:43:03.220Z,14.50
2022-10-23T07:45:29.664Z,14.50
2022-10-23T07:47:56.085Z,14.50
2022-10-23T07:50:22.528Z,14.60
2022-10-23T07:52:48.955Z,14.60
2022-10-23T07:55:15.421Z,14.60
2022-10-23T07:57:41.848Z,14.70
2022-10-23T08:00:08.281Z,14.70
2022-10-23T08:02:34.753Z,14.80
2022-10-23T08:05:01.227Z,14.80
2022-10-23T08:07:27.662Z,14.80
2022-10-23T08:09:54.112Z,14.90
2022-10-23T08:12:20.570Z,14.90
2022-10-23T08:14:47.027Z,15.00
2022-10-23T08:17:13.456Z,15.00
2022-10-23T08:19:39.966Z,15.10
2022-10-23T08:22:06.840Z,15.10
2022-10-23T08:24:33.320Z,15.10
2022-10-23T08:26:59.744Z,15.20
2022-10-23T08:29:26.189Z,15.30
2022-10-23T08:31:52.618Z,15.30
2022-10-23T08:34:19.230Z,15.30
2022-10-23T08:36:45.767Z,15.40
2022-10-23T08:39:12.206Z,15.40
2022-10-23T08:41:38.658Z,15.40
2022-10-23T08:44:05.085Z,15.40
2022-10-23T08:46:31.530Z,15.50
2022-10-23T08:48:57.969Z,15.50
2022-10-23T08:51:24.408Z,15.50
2022-10-23T08:53:50.847Z,15.50
2022-10-23T08:56:17.296Z,15.60
2022-10-23T08:58:43.765Z,15.60
2022-10-23T09:01:10.321Z,15.60
2022-10-23T09:03:36.846Z,15.60
2022-10-23T09:06:03.310Z,15.60
2022-10-23T09:08:29.734Z,15.60
2022-10-23T09:10:56.197Z,15.60
2022-10-23T09:13:22.637Z,15.70
2022-10-23T09:15:49.078Z,15.70
2022-10-23T09:18:15.540Z,15.70
2022-10-23T09:20:42.048Z,15.80
2022-10-23T09:23:08.488Z,15.80
2022-10-23T09:25:34.914Z,15.80
2022-10-23T09:28:05.069Z,15.80
2022-10-23T09:30:32.122Z,15.90
2022-10-23T09:32:58.565Z,15.90
2022-10-23T09:35:25.278Z,15.90
2022-10-23T09:37:51.931Z,15.90
2022-10-23T09:40:18.532Z,16.00
2022-10-23T09:42:45.200Z,16.00
2022-10-23T09:45:11.648Z,16.00
2022-10-23T09:47:38.155Z,16.10
2022-10-23T09:50:04.577Z,16.10
2022-10-23T09:52:31.029Z,16.10
2022-10-23T09:54:57.444Z,16.20
2022-10-23T09:57:23.871Z,16.20
2022-10-23T09:59:50.305Z,16.20
2022-10-23T10:02:16.866Z,16.20
2022-10-23T10:04:43.387Z,16.30
2022-10-23T10:07:09.823Z,16.30
2022-10-23T10:09:36.263Z,16.30
2022-10-23T10:12:02.697Z,16.30
2022-10-23T10:14:29.165Z,16.30
2022-10-23T10:16:55.599Z,16.30
2022-10-23T10:19:22.032Z,16.40
2022-10-23T10:21:48.470Z,16.40
2022-10-23T10:24:14.923Z,16.30
2022-10-23T10:26:41.352Z,16.30
2022-10-23T10:29:07.774Z,16.40
2022-10-23T10:31:34.381Z,16.40
2022-10-23T10:34:00.896Z,16.40
2022-10-23T10:36:27.495Z,16.40
2022-10-23T10:38:54.004Z,16.40
2022-10-23T10:41:20.463Z,16.40
2022-10-23T10:43:46.884Z,16.40
2022-10-23T10:46:13.345Z,16.40
2022-10-23T10:48:39.852Z,16.40
2022-10-23T10:51:06.275Z,16.50
2022-10-23T10:53:32.704Z,16.50
2022-10-23T10:55:59.248Z,16.60
2022-10-23T10:58:25.725Z,16.60
2022-10-23T11:00:52.176Z,16.60
2022-10-23T11:03:18.605Z,16.60
2022-10-23T11:05:45.044Z,16.60
2022-10-23T11:08:11.474Z,16.70
2022-10-23T11:10:37.906Z,16.70
2022-10-23T11:13:04.323Z,16.80
2022-10-23T11:15:30.784Z,16.80
2022-10-23T11:17:57.213Z,16.80
2022-10-23T11:20:23.654Z,16.90
2022-10-23T11:22:50.130Z,16.90
2022-10-23T11:25:16.652Z,16.90
2022-10-23T11:27:43.235Z,16.90
2022-10-23T11:30:09.842Z,16.90
2022-10-23T11:32:36.262Z,17.00
2022-10-23T11:35:02.671Z,17.00
2022-10-23T11:37:29.116Z,17.00
2022-10-23T11:39:55.549Z,17.10
2022-10-23T11:42:22.004Z,17.10
2022-10-23T11:44:48.473Z,17.20
2022-10-23T11:47:14.905Z,17.20
2022-10-23T11:49:41.326Z,17.30
2022-10-23T11:52:07.772Z,17.30
2022-10-23T11:54:34.194Z,17.30
2022-10-23T11:57:00.642Z,17.30
2022-10-23T11:59:27.071Z,17.40
2022-10-23T12:01:53.587Z,17.50
2022-10-23T12:04:20.030Z,17.50
2022-10-23T12:06:46.463Z,17.60
2022-10-23T12:09:12.897Z,17.70
2022-10-23T12:11:39.314Z,17.70
2022-10-23T12:14:05.777Z,17.80
2022-10-23T12:16:32.217Z,17.80
2022-10-23T12:18:58.649Z,17.80
2022-10-23T12:21:25.077Z,17.90
2022-10-23T12:23:51.496Z,17.90
2022-10-23T12:26:17.922Z,17.90
2022-10-23T12:28:44.366Z,17.90
2022-10-23T12:31:10.813Z,18.00
2022-10-23T12:33:37.239Z,18.00
2022-10-23T12:36:03.647Z,18.00
2022-10-23T12:38:33.881Z,18.10
2022-10-23T12:41:02.790Z,18.10
2022-10-23T12:43:29.211Z,18.20
2022-10-23T12:45:55.638Z,18.20
2022-10-23T12:48:22.089Z,18.30
2022-10-23T12:50:48.534Z,18.30
2022-10-23T12:53:14.955Z,18.30
2022-10-23T12:55:41.390Z,18.40
2022-10-23T12:58:07.809Z,18.40
2022-10-23T13:00:34.232Z,18.50
2022-10-23T13:03:00.667Z,18.50
2022-10-23T13:05:27.120Z,18.50
2022-10-23T13:07:53.540Z,18.60
2022-10-23T13:10:19.967Z,18.60
2022-10-23T13:12:46.383Z,18.70
2022-10-23T13:15:12.823Z,18.70
2022-10-23T13:17:39.286Z,18.70
2022-10-23T13:20:05.770Z,18.70
2022-10-23T13:22:32.223Z,18.70
2022-10-23T13:24:58.673Z,18.70
2022-10-23T13:27:25.113Z,18.60
2022-10-23T13:29:51.541Z,18.60
2022-10-23T13:32:17.967Z,18.70
2022-10-23T13:34:50.127Z,18.70
2022-10-23T13:37:24.565Z,18.70
2022-10-23T13:39:51.003Z,18.70
2022-10-23T13:42:17.443Z,18.80
2022-10-23T13:44:43.856Z,18.80
2022-10-23T13:47:10.280Z,18.80
2022-10-23T13:49:36.707Z,18.90
2022-10-23T13:52:03.157Z,18.90
2022-10-23T13:54:29.598Z,18.90
2022-10-23T13:56:56.041Z,19.00
2022-10-23T13:59:22.471Z,18.90
2022-10-23T14:01:48.982Z,19.00
2022-10-23T14:04:15.513Z,19.00
2022-10-23T14:06:41.946Z,19.00
2022-10-23T14:09:08.389Z,18.90
2022-10-23T14:11:34.825Z,19.00
2022-10-23T14:14:01.247Z,18.90
2022-10-23T14:16:27.677Z,18.90
2022-10-23T14:18:54.118Z,18.90
2022-10-23T14:21:20.561Z,18.90
2022-10-23T14:23:46.997Z,18.90
2022-10-23T14:26:13.417Z,18.90
2022-10-23T14:28:39.865Z,18.90
2022-10-23T14:31:06.294Z,18.90
2022-10-23T14:33:32.720Z,18.90
2022-10-23T14:35:59.153Z,18.90
2022-10-23T14:38:25.589Z,19.00
2022-10-23T14:40:52.015Z,18.90
2022-10-23T14:43:18.474Z,18.90
2022-10-23T14:45:44.910Z,19.00
2022-10-23T14:48:13.518Z,19.00
2022-10-23T14:50:39.938Z,19.00
2022-10-23T14:53:06.392Z,19.00
2022-10-23T14:55:32.814Z,19.00
2022-10-23T14:57:59.258Z,19.00
2022-10-23T15:00:25.685Z,19.00
2022-10-23T15:02:52.115Z,19.10
2022-10-23T15:05:18.557Z,19.10
2022-10-23T15:07:44.999Z,19.10
2022-10-23T15:10:11.478Z,19.10
2022-10-23T15:12:37.973Z,19.10
2022-10-23T15:15:04.435Z,19.10
2022-10-23T15:17:30.943Z,19.10
2022-10-23T15:19:57.378Z,19.10
2022-10-23T15:22:23.801Z,19.10
2022-10-23T15:24:50.228Z,19.10
2022-10-23T15:27:16.665Z,19.10
2022-10-23T15:29:43.147Z,19.10
2022-10-23T15:32:09.576Z,19.10
2022-10-23T15:34:36.010Z,19.00
2022-10-23T15:37:02.445Z,19.00
2022-10-23T15:39:28.876Z,19.00
2022-10-23T15:41:55.292Z,19.00
2022-10-23T15:44:21.725Z,19.00
2022-10-23T15:46:48.146Z,18.90
2022-10-23T15:49:14.589Z,18.90
2022-10-23T15:51:41.014Z,18.90
2022-10-23T15:54:07.443Z,18.80
2022-10-23T15:56:33.856Z,18.80
2022-10-23T15:59:00.289Z,18.80
2022-10-23T16:01:26.787Z,18.80
2022-10-23T16:03:53.325Z,18.80
2022-10-23T16:06:19.749Z,18.80
2022-10-23T16:08:46.238Z,18.80
2022-10-23T16:11:12.700Z,18.70
2022-10-23T16:13:39.124Z,18.70
2022-10-23T16:16:05.539Z,18.70
2022-10-23T16:18:31.988Z,18.70
2022-10-23T16:20:58.408Z,18.60
2022-10-23T16:23:24.853Z,18.60
2022-10-23T16:25:51.274Z,18.60
2022-10-23T16:28:17.704Z,18.60
2022-10-23T16:30:44.143Z,18.50
2022-10-23T16:33:10.575Z,18.50
2022-10-23T16:35:37.003Z,18.50
2022-10-23T16:38:03.452Z,18.50
2022-10-23T16:40:29.870Z,18.50
2022-10-23T16:42:56.330Z,18.50
2022-10-23T16:45:22.757Z,18.50
2022-10-23T16:47:49.188Z,18.50
2022-10-23T16:50:15.641Z,18.50
2022-10-23T16:52:42.284Z,18.50
2022-10-23T16:55:08.980Z,18.50
2022-10-23T16:57:35.423Z,18.50
2022-10-23T17:00:01.869Z,18.50
2022-10-23T17:02:28.394Z,18.50
2022-10-23T17:04:54.950Z,18.50
2022-10-23T17:09:48.761Z,18.50
2022-10-23T17:12:15.219Z,18.50
2022-10-23T17:14:41.652Z,18.50
2022-10-23T17:17:08.070Z,18.60
2022-10-23T17:19:49.787Z,18.50
2022-10-23T17:22:16.215Z,18.60
2022-10-23T17:24:42.669Z,18.50
2022-10-23T17:27:09.423Z,18.50
2022-10-23T17:29:35.886Z,18.50
2022-10-23T17:32:02.321Z,18.50
2022-10-23T17:34:28.777Z,18.50
2022-10-23T17:36:55.251Z,18.40
2022-10-23T17:39:21.699Z,18.40
2022-10-23T17:41:48.113Z,18.40
2022-10-23T17:44:14.540Z,18.40
2022-10-23T17:46:40.972Z,18.40
2022-10-23T17:49:07.411Z,18.40
2022-10-23T17:51:33.845Z,18.40
2022-10-23T17:54:00.272Z,18.40
2022-10-23T17:56:26.722Z,18.40
2022-10-23T17:58:53.151Z,18.40
2022-10-23T18:01:19.640Z,18.40
2022-10-23T18:03:46.144Z,18.40
2022-10-23T18:06:12.570Z,18.40
2022-10-23T18:08:38.994Z,18.40
2022-10-23T18:11:05.432Z,18.40
2022-10-23T18:13:31.851Z,18.40
2022-10-23T18:15:58.289Z,18.40
2022-10-23T18:18:24.715Z,18.40
2022-10-23T18:20:51.157Z,18.40
2022-10-23T18:23:17.591Z,18.40
2022-10-23T18:25:44.033Z,18.40
2022-10-23T18:28:10.470Z,18.40
2022-10-23T18:33:08.251Z,18.40
2022-10-23T18:35:34.676Z,18.40
2022-10-23T18:38:01.094Z,18.40
2022-10-23T18:40:28.091Z,18.40
2022-10-23T18:42:54.654Z,18.40
2022-10-23T18:45:21.095Z,18.40
2022-10-23T18:47:47.525Z,18.40
2022-10-23T18:50:13.979Z,18.40
2022-10-23T18:52:40.417Z,18.40
2022-10-23T18:55:06.855Z,18.40
2022-10-23T18:57:33.274Z,18.50
2022-10-23T18:59:59.706Z,18.50
2022-10-23T19:02:26.257Z,18.50
2022-10-23T19:04:52.787Z,18.50
2022-10-23T19:07:19.211Z,18.40
2022-10-23T19:09:45.668Z,18.50
2022-10-23T19:14:43.413Z,18.40
2022-10-23T19:17:09.851Z,18.40
2022-10-23T19:19:36.315Z,18.40
2022-10-23T19:22:02.772Z,18.40
2022-10-23T19:24:29.186Z,18.40
2022-10-23T19:26:55.625Z,18.40
2022-10-23T19:29:22.049Z,18.40
2022-10-23T19:31:48.487Z,18.40
2022-10-23T19:34:14.929Z,18.30
2022-10-23T19:36:41.378Z,18.30
2022-10-23T19:39:07.831Z,18.30
2022-10-23T19:41:34.278Z,18.30
2022-10-23T19:44:00.730Z,18.30
2022-10-23T19:46:27.156Z,18.30
2022-10-23T19:48:53.590Z,18.30
2022-10-23T19:51:20.034Z,18.30
2022-10-23T19:53:46.509Z,18.30
2022-10-23T19:56:13.057Z,18.30
2022-10-23T19:58:39.491Z,18.30
2022-10-23T20:01:06.098Z,18.20
2022-10-23T20:03:32.587Z,18.30
2022-10-23T20:05:59.284Z,18.20
2022-10-23T20:08:25.752Z,18.30
2022-10-23T20:10:52.255Z,18.30
2022-10-23T20:13:20.122Z,18.30
2022-10-23T20:15:47.017Z,18.30
2022-10-23T20:18:13.431Z,18.20
2022-10-23T20:20:39.857Z,18.20
2022-10-23T20:23:06.349Z,18.20
2022-10-23T20:25:32.802Z,18.10
2022-10-23T20:27:59.230Z,18.10
2022-10-23T20:30:25.653Z,18.10
2022-10-23T20:32:52.080Z,18.10
2022-10-23T20:35:18.507Z,18.10
2022-10-23T20:37:45.203Z,18.10
2022-10-23T20:40:11.796Z,18.10
2022-10-23T20:42:38.232Z,18.00
2022-10-23T20:45:04.663Z,18.00
2022-10-23T20:47:31.098Z,18.00
2022-10-23T20:49:57.532Z,18.00
2022-10-23T20:52:24.031Z,18.00
2022-10-23T20:54:50.525Z,18.00
2022-10-23T20:57:20.538Z,18.00
2022-10-23T20:59:47.830Z,18.00
2022-10-23T21:02:14.360Z,18.00
2022-10-23T21:04:40.858Z,17.90
2022-10-23T21:07:10.454Z,18.00
2022-10-23T21:09:37.421Z,17.90
2022-10-23T21:12:03.869Z,17.90
2022-10-23T21:14:30.310Z,17.90
2022-10-23T21:16:56.748Z,17.90
2022-10-23T21:19:23.167Z,17.90
2022-10-23T21:21:49.607Z,17.90
2022-10-23T21:24:16.027Z,17.90
2022-10-23T21:26:42.632Z,17.90
2022-10-23T21:29:24.266Z,17.90
2022-10-23T21:31:50.738Z,17.90
2022-10-23T21:34:17.170Z,17.90
2022-10-23T21:37:00.505Z,17.90
2022-10-23T21:39:30.012Z,17.90
2022-10-23T21:41:56.453Z,17.90
2022-10-23T21:44:22.889Z,17.90
2022-10-23T21:46:49.340Z,17.90
2022-10-23T21:49:15.757Z,17.80
2022-10-23T21:51:42.196Z,17.80
2022-10-23T21:54:08.674Z,17.80
2022-10-23T21:56:35.124Z,17.70
2022-10-23T21:59:01.645Z,17.70
2022-10-23T22:01:28.188Z,17.70
2022-10-23T22:03:54.855Z,17.70
2022-10-23T22:06:21.284Z,17.60
2022-10-23T22:08:47.745Z,17.70
2022-10-23T22:11:14.168Z,17.70
2022-10-23T22:13:40.603Z,17.60
2022-10-23T22:16:07.037Z,17.60
2022-10-23T22:18:33.467Z,17.60
2022-10-23T22:21:01.237Z,17.60
2022-10-23T22:23:27.871Z,17.50
2022-10-23T22:25:54.283Z,17.50
2022-10-23T22:28:20.717Z,17.50
2022-10-23T22:30:47.153Z,17.40
2022-10-23T22:33:13.587Z,17.40
2022-10-23T22:35:40.023Z,17.40
2022-10-23T22:38:06.448Z,17.40
2022-10-23T22:40:32.900Z,17.40
2022-10-23T22:42:59.328Z,17.40
2022-10-23T22:45:25.750Z,17.40
2022-10-23T22:47:52.194Z,17.40
2022-10-23T22:50:18.626Z,17.40
2022-10-23T22:52:45.300Z,17.40
2022-10-23T22:55:12.015Z,17.40
2022-10-23T22:57:38.448Z,17.40
2022-10-23T23:00:04.891Z,17.40
2022-10-23T23:02:31.321Z,17.30
2022-10-23T23:04:57.743Z,17.30
2022-10-23T23:07:24.183Z,17.30
2022-10-23T23:09:50.601Z,17.30
2022-10-23T23:12:17.049Z,17.30
2022-10-23T23:14:43.472Z,17.30
2022-10-23T23:17:09.923Z,17.30
2022-10-23T23:19:36.375Z,17.30
2022-10-23T23:22:02.798Z,17.30
2022-10-23T23:24:29.232Z,17.30
2022-10-23T23:26:55.651Z,17.30
2022-10-23T23:29:22.075Z,17.30
2022-10-23T23:31:48.493Z,17.30
2022-10-23T23:34:14.937Z,17.30
2022-10-23T23:36:41.354Z,17.30
2022-10-23T23:39:07.808Z,17.30
2022-10-23T23:41:34.229Z,17.30
2022-10-23T23:44:00.687Z,17.30
2022-10-23T23:46:27.107Z,17.20
2022-10-23T23:48:53.541Z,17.20
2022-10-23T23:51:19.988Z,17.20
2022-10-23T23:53:46.419Z,17.20
2022-10-23T23:56:12.848Z,17.20
2022-10-23T23:58:39.286Z,17.20
